Flight Track Log - Related Links

Times and Time Zones

All times are in EDT time to prevent confusion due to time zone crossing. See the SWA385 flight status page for this flight to view local times or setup timezone preferences in your user account.


Time Position Orientation Groundspeed Altitude Reporting Facility
EDT Latitude Longitude Course Direction KTS MPH feet Rate Location/Type
Fri 07:26:59 PM 41.8000 -87.8000 276° West 153 176 2,500  Level Chicago TRACON
Fri 07:27:38 PM 41.7803 -87.8428 238° Southwest 188 216 3,800 2,376 Climbing Chicago Center
Fri 07:28:40 PM 41.7736 -87.9272 264° West 233 268 6,500 2,903 Climbing Chicago Center
Fri 07:29:42 PM 41.7969 -88.0164 289° West 254 292 9,800 3,000 Climbing Chicago Center
Fri 07:30:44 PM 41.8197 -88.1150 287° West 275 316 12,700 2,516 Climbing Chicago Center
Fri 07:31:46 PM 41.8356 -88.2158 282° West 306 352 15,000 2,226 Climbing Chicago Center
Fri 07:32:00 PM 41.8474 -88.4661 276° West  Level FlightAware Approximate
Fri 07:32:48 PM 41.9192 -88.3250 316° Northwest 353 406 17,300  Level Chicago Center
Fri 07:33:50 PM 41.9928 -88.4242 315° West 373 429 19,700 2,226 Climbing Chicago Center
Fri 07:34:52 PM 42.0678 -88.5286 314° West 388 447 21,900 2,081 Climbing Chicago Center
Fri 07:35:54 PM 42.0794 -88.6753 276° West 398 458 24,000 1,887 Climbing Chicago Center
Fri 07:36:56 PM 42.0853 -88.8481 273° West 405 466 25,800 1,839 Climbing Chicago Center
Fri 07:37:58 PM 42.0919 -89.0053 273° West 414 476 27,800 1,742 Climbing Chicago Center
Fri 07:39:00 PM 42.1006 -89.1628 274° West 419 482 29,400 1,645 Climbing Chicago Center
Fri 07:40:02 PM 42.1086 -89.3219 274° West 424 488 31,200 1,645 Climbing Chicago Center
Fri 07:41:04 PM 42.1136 -89.4792 273° West 420 483 32,800 1,742 Climbing Chicago Center
Fri 07:42:06 PM 42.1533 -89.6500 287° West 415 478 34,800 1,548 Climbing Chicago Center
Fri 07:43:08 PM 42.2064 -89.7903 297° West 415 478 36,000 1,065 Climbing Chicago Center
Fri 07:44:10 PM 42.2506 -89.9147 296° West 410 472 37,000 968 Climbing Chicago Center
Fri 07:45:12 PM 42.3128 -90.0819 297° West 417 480 38,000 484 Climbing Chicago Center
Fri 07:46:14 PM 42.3328 -90.2325 280° West 412 474 38,000  Level Chicago Center
Fri 07:47:16 PM 42.3456 -90.3828 277° West 407 468 38,000  Level Chicago Center
Fri 07:48:18 PM 42.3586 -90.5333 277° West 406 467 38,000  Level Chicago Center
Fri 07:49:20 PM 42.3725 -90.6853 277° West 410 472 38,000  Level Chicago Center
Fri 07:50:22 PM 42.3847 -90.8358 276° West 408 470 38,000  Level Chicago Center
Fri 07:51:25 PM 42.3986 -91.0147 276° West 403 464 38,000  Level Chicago Center
Fri 07:52:26 PM 42.4106 -91.1642 276° West 403 464 38,000  Level Chicago Center
Fri 07:53:28 PM 42.4217 -91.3139 276° West 402 463 38,000  Level Chicago Center
Fri 07:54:30 PM 42.4331 -91.4653 276° West 406 467 38,000  Level Chicago Center
Fri 07:55:32 PM 42.4431 -91.6156 275° West 402 463 38,000  Level Chicago Center
Fri 07:56:34 PM 42.4567 -91.7972 276° West 404 465 38,000  Level Chicago Center
Fri 07:57:36 PM 42.4678 -91.9469 276° West 403 464 38,000  Level Chicago Center
Fri 07:58:38 PM 42.4786 -92.0975 276° West 402 463 38,000  Level Chicago Center
Fri 07:59:40 PM 42.4883 -92.2475 275° West 404 465 38,000  Level Chicago Center
Fri 08:00:42 PM 42.4992 -92.3986 276° West 405 466 38,000  Level Chicago Center
Fri 08:01:44 PM 42.5086 -92.5489 275° West 404 465 38,000  Level Chicago Center
Fri 08:02:46 PM 42.5219 -92.7303 276° West 408 470 38,000  Level Chicago Center
Fri 08:03:48 PM 42.5303 -92.8814 274° West 405 466 38,000  Level Chicago Center
Fri 08:04:50 PM 42.5403 -93.0317 275° West 406 467 38,000  Level Chicago Center
Fri 08:05:52 PM 42.5486 -93.1822 274° West 404 465 38,000  Level Chicago Center
Fri 08:06:54 PM 42.5572 -93.3319 275° West 401 461 38,000  Level Chicago Center
Fri 08:07:56 PM 42.5664 -93.5106 274° West 399 459 38,000  Level Chicago Center
Fri 08:08:59 PM 42.5744 -93.6597 274° West 398 458 38,000  Level Chicago Center
Fri 08:10:01 PM 42.5825 -93.8072 274° West 398 458 38,000  Level Chicago Center
Fri 08:11:03 PM 42.5897 -93.9556 274° West 397 457 38,000  Level Chicago Center
Fri 08:12:19 PM 42.6006 -94.1647 274° West 399 459 38,000  Level Minneapolis Center
Fri 08:13:21 PM 42.6069 -94.3128 273° West 398 458 38,000  Level Minneapolis Center
Fri 08:14:23 PM 42.6156 -94.4611 275° West 397 457 38,000  Level Minneapolis Center
Fri 08:15:25 PM 42.6222 -94.6139 273° West 398 458 38,000  Level Minneapolis Center
Fri 08:16:27 PM 42.6289 -94.7622 274° West 398 458 38,000  Level Minneapolis Center
Fri 08:17:29 PM 42.6356 -94.9422 273° West 398 458 38,000  Level Minneapolis Center
Fri 08:18:32 PM 42.6425 -95.0908 274° West 397 457 38,000  Level Minneapolis Center
Fri 08:19:34 PM 42.6481 -95.2392 273° West 395 455 38,000  Level Minneapolis Center
Fri 08:20:36 PM 42.6533 -95.3867 273° West 394 453 38,000  Level Minneapolis Center
Fri 08:21:38 PM 42.6586 -95.5336 273° West 390 449 38,000  Level Minneapolis Center
Fri 08:22:40 PM 42.6628 -95.6789 272° West 387 445 38,000  Level Minneapolis Center
Fri 08:23:42 PM 42.6694 -95.8503 273° West 381 438 38,000  Level Minneapolis Center
Fri 08:24:44 PM 42.6739 -95.9986 272° West 388 447 38,000  Level Minneapolis Center
Fri 08:25:46 PM 42.6789 -96.1442 273° West 390 449 38,000  Level Minneapolis Center
Fri 08:26:48 PM 42.6828 -96.2900 272° West 389 448 38,000  Level Minneapolis Center
Fri 08:27:50 PM 42.6872 -96.4358 272° West 388 447 38,000  Level Minneapolis Center
Fri 08:28:52 PM 42.6919 -96.6103 272° West 387 445 38,000  Level Minneapolis Center
Fri 08:29:54 PM 42.6961 -96.7567 272° West 389 448 38,000  Level Minneapolis Center
Fri 08:30:56 PM 42.6992 -96.8936 272° West 388 447 38,000  Level Minneapolis Center
Fri 08:31:58 PM 42.7028 -97.0406 272° West 388 447 38,000  Level Minneapolis Center
Fri 08:33:00 PM 42.7064 -97.2161 272° West 387 445 38,000  Level Minneapolis Center
Fri 08:34:02 PM 42.7100 -97.3636 272° West 390 449 38,000  Level Minneapolis Center
Fri 08:35:05 PM 42.7125 -97.5097 271° West 388 447 38,000  Level Minneapolis Center
Fri 08:36:07 PM 42.7150 -97.6544 271° West 385 443 38,000  Level Minneapolis Center
Fri 08:37:21 PM 42.7178 -97.8278 271° West 384 442 38,000  Level Minneapolis Center
Fri 08:38:23 PM 42.7206 -97.9728 272° West 384 442 38,000  Level Minneapolis Center
Fri 08:39:25 PM 42.7219 -98.1458 271° West 383 441 38,000  Level Minneapolis Center
Fri 08:40:27 PM 42.7244 -98.2731 272° West 384 442 38,000  Level Minneapolis Center
Fri 08:41:29 PM 42.7258 -98.4469 271° West 384 442 38,000  Level Minneapolis Center
Fri 08:42:31 PM 42.7272 -98.5917 271° West 384 442 38,000  Level Minneapolis Center
Fri 08:43:33 PM 42.7289 -98.7353 271° West 382 440 38,000  Level Minneapolis Center
Fri 08:44:48 PM 42.7297 -98.9092 270° West 383 441 38,000  Level Minneapolis Center
Fri 08:45:50 PM 42.7311 -99.0525 271° West 380 437 38,000  Level Minneapolis Center
Fri 08:46:52 PM 42.7314 -99.1983 270° West 385 443 38,000  Level Minneapolis Center
Fri 08:47:54 PM 42.7322 -99.3683 270° West 379 436 38,000  Level Minneapolis Center
Fri 08:48:56 PM 42.7325 -99.5147 270° West 387 445 38,000  Level Minneapolis Center
Fri 08:49:58 PM 42.7325 -99.6592 270° West 385 443 38,000  Level Minneapolis Center
Fri 08:51:00 PM 42.7325 -99.8028 270° West 382 440 38,000  Level Minneapolis Center
Fri 08:52:02 PM 42.7322 -99.9461 270° West 381 438 38,000  Level Minneapolis Center
Fri 08:53:04 PM 42.7314 -100.0903 270° West 382 440 38,000  Level Minneapolis Center
Fri 08:54:07 PM 42.7303 -100.2656 270° West 384 442 38,000  Level Minneapolis Center
Fri 08:55:09 PM 42.7303 -100.4108 270° West 386 444 38,000  Level Minneapolis Center
Fri 08:56:11 PM 42.7283 -100.5583 269° West 388 447 38,000  Level Minneapolis Center
Fri 08:57:13 PM 42.7275 -100.7050 270° West 388 447 38,000  Level Minneapolis Center
Fri 08:58:15 PM 42.7267 -100.8542 270° West 393 452 38,000  Level Minneapolis Center
Fri 08:59:14 PM 42.7239 -101.0239 269° West 392 451 38,000  Level Denver Center
Fri 09:00:16 PM 42.7164 -101.1628 266° West 388 447 38,000  Level Denver Center
Fri 09:01:18 PM 42.7025 -101.3025 262° West 388 447 38,000  Level Denver Center
Fri 09:02:19 PM 42.6867 -101.4639 262° West 387 445 38,000  Level Denver Center
Fri 09:03:21 PM 42.6733 -101.6014 263° West 384 442 38,000  Level Denver Center
Fri 09:04:22 PM 42.6578 -101.7631 263° West 384 442 38,000  Level Denver Center
Fri 09:05:24 PM 42.6433 -101.8983 262° West 389 448 38,000  Level Denver Center
Fri 09:06:25 PM 42.6272 -102.0617 262° West 390 449 38,000  Level Denver Center
Fri 09:07:27 PM 42.6111 -102.2011 261° West 392 451 38,000  Level Denver Center
Fri 09:08:29 PM 42.5942 -102.3650 262° West 393 452 38,000  Level Denver Center
Fri 09:09:30 PM 42.5817 -102.5058 263° West 392 451 38,000  Level Denver Center
Fri 09:10:32 PM 42.5656 -102.6453 261° West 392 451 38,000 484 Level Denver Center
Fri 09:11:34 PM 42.5481 -102.8097 262° West 394 453 39,000 976 Climbing Denver Center
Fri 09:12:35 PM 42.5314 -102.9500 261° West 395 455 40,000 488 Climbing Denver Center
Fri 09:13:37 PM 42.5136 -103.1131 262° West 394 453 40,000  Level Denver Center
Fri 09:14:38 PM 42.4978 -103.2508 261° West 389 448 40,000  Level Denver Center
Fri 09:15:40 PM 42.4803 -103.4131 262° West 389 448 40,000  Level Denver Center
Fri 09:16:42 PM 42.4636 -103.5514 261° West 388 447 40,000  Level Denver Center
Fri 09:17:43 PM 42.4475 -103.6911 261° West 390 449 40,000  Level Denver Center
Fri 09:18:45 PM 42.4281 -103.8533 261° West 389 448 40,000  Level Denver Center
Fri 09:19:47 PM 42.4111 -103.9928 261° West 391 450 40,000  Level Denver Center
Fri 09:20:48 PM 42.3911 -104.1553 261° West 391 450 40,000  Level Denver Center
Fri 09:21:50 PM 42.3742 -104.2967 261° West 394 453 40,000  Level Denver Center
Fri 09:22:52 PM 42.3556 -104.4394 260° West 397 457 40,000  Level Denver Center
Fri 09:23:53 PM 42.3347 -104.6078 261° West 402 463 40,000  Level Denver Center
Fri 09:24:55 PM 42.3169 -104.7503 260° West 399 459 40,000  Level Denver Center
Fri 09:25:57 PM 42.2992 -104.8919 260° West 397 457 40,000  Level Denver Center
Fri 09:26:58 PM 42.2789 -105.0561 261° West 395 455 40,000  Level Denver Center
Fri 09:28:00 PM 42.2625 -105.1728 259° West 396 456 40,000  Level Denver Center
Fri 09:29:02 PM 42.2369 -105.3611 260° West 400 460 40,000  Level Denver Center
Fri 09:30:04 PM 42.2194 -105.5014 260° West 397 457 40,000  Level Denver Center
Fri 09:31:05 PM 42.1964 -105.6664 259° West 399 459 40,000  Level Denver Center
Fri 09:32:07 PM 42.1781 -105.8089 260° West 403 464 40,000  Level Denver Center
Fri 09:33:08 PM 42.1617 -105.9264 259° West 402 463 40,000  Level Denver Center
Fri 09:34:11 PM 42.1361 -106.1128 260° West 399 459 40,000  Level Denver Center
Fri 09:35:12 PM 42.1200 -106.2283 259° West 396 456 40,000  Level Denver Center
Fri 09:36:14 PM 42.0928 -106.4117 259° West 392 451 40,000  Level Denver Center
Fri 09:37:16 PM 42.0736 -106.5592 260° West 397 457 40,000  Level Denver Center
Fri 09:38:18 PM 42.0528 -106.6989 259° West 399 459 40,000  Level Denver Center
Fri 09:39:19 PM 42.0294 -106.8628 259° West 399 459 40,000  Level Denver Center
Fri 09:40:21 PM 42.0083 -107.0011 258° West 396 456 40,000  Level Denver Center
Fri 09:41:23 PM 41.9844 -107.1631 259° West 397 457 40,000  Level Denver Center
Fri 09:42:25 PM 41.9628 -107.3011 258° West 396 456 40,000  Level Denver Center
Fri 09:43:26 PM 41.9389 -107.4636 259° West 397 457 40,000  Level Denver Center
Fri 09:44:28 PM 41.9169 -107.6019 258° West 396 456 40,000  Level Denver Center
Fri 09:45:30 PM 41.8956 -107.7400 258° West 397 457 40,000  Level Denver Center
Fri 09:46:32 PM 41.8703 -107.9056 258° West 404 465 40,000  Level Denver Center
Fri 09:47:11 PM 41.8569 -108.0033 260° West 411 473 40,000  Level Salt Lake Center
Fri 09:48:12 PM 41.8322 -108.1447 257° West 409 471 40,000  Level Salt Lake Center
Fri 09:49:14 PM 41.8069 -108.3094 258° West 404 465 40,000  Level Salt Lake Center
Fri 09:50:16 PM 41.7847 -108.4500 258° West 404 465 40,000  Level Salt Lake Center
Fri 09:51:17 PM 41.7569 -108.6128 257° West 405 466 40,000  Level Salt Lake Center
Fri 09:52:19 PM 41.7347 -108.7536 258° West 406 467 40,000  Level Salt Lake Center
Fri 09:53:20 PM 41.7089 -108.9150 258° West 401 461 40,000  Level Salt Lake Center
Fri 09:54:22 PM 41.6856 -109.0522 257° West 399 459 40,000  Level Salt Lake Center
Fri 09:55:24 PM 41.6600 -109.2133 258° West 401 461 40,000  Level Salt Lake Center
Fri 09:56:25 PM 41.6353 -109.3497 256° West 400 460 40,000  Level Salt Lake Center
Fri 09:57:27 PM 41.6072 -109.5097 257° West 399 459 40,000  Level Salt Lake Center
Fri 09:58:29 PM 41.5831 -109.6469 257° West 400 460 40,000  Level Salt Lake Center
Fri 09:59:30 PM 41.5550 -109.8081 257° West 401 461 40,000  Level Salt Lake Center
Fri 10:00:32 PM 41.5306 -109.9467 257° West 400 460 40,000  Level Salt Lake Center
Fri 10:01:33 PM 41.5056 -110.0839 256° West 400 460 40,000  Level Salt Lake Center
Fri 10:02:35 PM 41.4772 -110.2464 257° West 403 464 40,000  Level Salt Lake Center
Fri 10:03:37 PM 41.4522 -110.3833 256° West 399 459 40,000  Level Salt Lake Center
Fri 10:04:38 PM 41.4231 -110.5436 256° West 399 459 40,000  Level Salt Lake Center
Fri 10:05:40 PM 41.3981 -110.6792 256° West 397 457 40,000  Level Salt Lake Center
Fri 10:06:41 PM 41.3700 -110.8361 257° West 391 450 40,000  Level Salt Lake Center
Fri 10:07:43 PM 41.3425 -110.9814 256° West 394 453 40,000  Level Salt Lake Center
Fri 10:08:45 PM 41.3161 -111.1228 256° West 396 456 40,000  Level Salt Lake Center
Fri 10:09:46 PM 41.2889 -111.2650 256° West 398 458 40,000  Level Salt Lake Center
Fri 10:10:48 PM 41.2633 -111.4064 257° West 397 457 40,000  Level Salt Lake Center
Fri 10:11:49 PM 41.2358 -111.5478 256° West 398 458 40,000  Level Salt Lake Center
Fri 10:12:51 PM 41.2092 -111.6883 256° West 398 458 40,000  Level Salt Lake Center
Fri 10:13:53 PM 41.1769 -111.8550 256° West 397 457 40,000  Level Salt Lake Center
Fri 10:14:54 PM 41.1511 -111.9933 256° West 396 456 40,000  Level Salt Lake Center
Fri 10:15:56 PM 41.1231 -112.1311 255° West 394 453 40,000  Level Salt Lake Center
Fri 10:16:57 PM 41.0958 -112.2708 256° West 394 453 40,000  Level Salt Lake Center
Fri 10:17:59 PM 41.0678 -112.4086 255° West 392 451 40,000  Level Salt Lake Center
Fri 10:19:01 PM 41.0397 -112.5475 255° West 392 451 40,000  Level Salt Lake Center
Fri 10:20:02 PM 41.0058 -112.7144 255° West 393 452 40,000  Level Salt Lake Center
Fri 10:21:04 PM 40.9778 -112.8550 255° West 396 456 40,000  Level Salt Lake Center
Fri 10:22:05 PM 40.9492 -112.9958 255° West 397 457 40,000  Level Salt Lake Center
Fri 10:23:07 PM 40.9200 -113.1378 255° West 399 459 40,000  Level Salt Lake Center
Fri 10:24:09 PM 40.8908 -113.2778 255° West 397 457 40,000  Level Salt Lake Center
Fri 10:25:10 PM 40.8622 -113.4178 255° West 395 455 40,000  Level Salt Lake Center
Fri 10:26:12 PM 40.8333 -113.5592 255° West 398 458 40,000  Level Salt Lake Center
Fri 10:27:14 PM 40.7950 -113.7272 253° West 399 459 40,000  Level Salt Lake Center
Fri 10:28:15 PM 40.7650 -113.8667 254° West 397 457 40,000  Level Salt Lake Center
Fri 10:29:17 PM 40.7350 -114.0072 254° West 398 458 40,000  Level Salt Lake Center
Fri 10:30:19 PM 40.7050 -114.1481 254° West 400 460 40,000  Level Salt Lake Center
Fri 10:31:20 PM 40.6742 -114.2897 254° West 401 461 40,000  Level Salt Lake Center
Fri 10:32:22 PM 40.6425 -114.4289 253° West 399 459 40,000  Level Salt Lake Center
Fri 10:33:23 PM 40.6125 -114.5697 254° West 400 460 40,000  Level Salt Lake Center
Fri 10:34:25 PM 40.5808 -114.7111 254° West 402 463 40,000  Level Salt Lake Center
Fri 10:35:27 PM 40.5478 -114.8647 254° West 404 465 40,000  Level Salt Lake Center
Fri 10:36:28 PM 40.5128 -115.0233 254° West 405 466 40,000  Level Salt Lake Center
Fri 10:37:30 PM 40.4819 -115.1594 253° West 405 466 40,000  Level Salt Lake Center
Fri 10:38:31 PM 40.4458 -115.3169 253° West 405 466 40,000  Level Salt Lake Center
Fri 10:39:33 PM 40.4142 -115.4517 253° West 404 465 40,000  Level Salt Lake Center
Fri 10:40:34 PM 40.3828 -115.5861 253° West 403 464 40,000  Level Salt Lake Center
Fri 10:41:36 PM 40.3467 -115.7428 253° West 402 463 40,000  Level Salt Lake Center
Fri 10:42:37 PM 40.3117 -115.8744 251° West 401 461 40,000  Level Salt Lake Center
Fri 10:43:39 PM 40.2764 -116.0278 253° West 393 452 40,000  Level Salt Lake Center
Fri 10:44:40 PM 40.2450 -116.1600 253° West 395 455 40,000  Level Salt Lake Center
Fri 10:45:42 PM 40.2144 -116.2908 253° West 393 452 40,000  Level Salt Lake Center
Fri 10:46:43 PM 40.1767 -116.4453 252° West 395 455 40,000  Level Salt Lake Center
Fri 10:47:45 PM 40.1436 -116.5783 252° West 400 460 40,000  Level Salt Lake Center
Fri 10:48:43 PM 40.1117 -116.7128 253° West 400 460 40,000  Level Oakland Center
Fri 10:49:44 PM 40.0806 -116.8464 253° West 398 458 40,000  Level Oakland Center
Fri 10:50:45 PM 40.0419 -117.0031 252° West 403 464 40,000  Level Oakland Center
Fri 10:51:51 PM 40.0011 -117.1614 251° West 407 468 40,000  Level Salt Lake Center
Fri 10:52:53 PM 39.9681 -117.2964 252° West 408 470 40,000  Level Salt Lake Center
Fri 10:53:48 PM 39.9347 -117.4300 252° West 406 467 40,000  Level Oakland Center
Fri 10:54:49 PM 39.9017 -117.5636 252° West 406 467 40,000  Level Oakland Center
Fri 10:55:50 PM 39.8633 -117.7147 252° West 402 463 40,000  Level Oakland Center
Fri 10:56:52 PM 39.8283 -117.8528 252° West 402 463 40,000  Level Oakland Center
Fri 10:57:53 PM 39.7925 -117.9908 251° West 403 464 40,000  Level Oakland Center
Fri 10:58:54 PM 39.7581 -118.1272 252° West 400 460 40,000 -197 Level Oakland Center
Fri 10:59:55 PM 39.7219 -118.2653 251° West 405 466 39,600 -639 Descending Oakland Center
Fri 11:00:56 PM 39.6864 -118.4025 251° West 404 465 38,700 -934 Descending Oakland Center
Fri 11:01:57 PM 39.6514 -118.5394 252° West 404 465 37,700 -934 Descending Oakland Center
Fri 11:02:58 PM 39.6167 -118.6783 252° West 409 471 36,800 -984 Descending Oakland Center
Fri 11:03:59 PM 39.5725 -118.8442 251° West 412 474 35,700 -1,024 Descending Oakland Center
Fri 11:05:01 PM 39.5333 -118.9831 250° West 417 480 34,700 -976 Descending Oakland Center
Fri 11:06:02 PM 39.4958 -119.1228 251° West 416 479 33,700 -984 Descending Oakland Center
Fri 11:07:03 PM 39.4583 -119.2600 251° West 409 471 32,700 -984 Descending Oakland Center
Fri 11:08:04 PM 39.4208 -119.3972 251° West 406 467 31,700 -984 Descending Oakland Center
Fri 11:09:05 PM 39.3844 -119.5339 251° West 405 466 30,700 -976 Descending Oakland Center
Fri 11:10:07 PM 39.3472 -119.6667 250° West 397 457 29,700 -1,024 Descending Oakland Center
Fri 11:11:08 PM 39.3111 -119.7972 250° West 390 449 28,600 -1,623 Descending Oakland Center
Fri 11:12:09 PM 39.2719 -119.9472 251° West 367 422 26,400 -2,016 Descending Oakland Center
Fri 11:13:10 PM 39.2386 -120.0686 251° West 359 413 24,500 -1,820 Descending Oakland Center
Fri 11:14:11 PM 39.2031 -120.1839 248° West 342 394 22,700 -1,770 Descending Oakland Center
Fri 11:15:12 PM 39.1717 -120.2978 250° West 337 388 20,900 -1,805 Descending Oakland Center
Fri 11:16:14 PM 39.1425 -120.4214 253° West 359 413 19,000 -1,951 Descending Oakland Center
Fri 11:17:15 PM 39.1100 -120.5461 251° West 365 420 16,900 -1,820 Descending Oakland Center
Fri 11:18:16 PM 39.0800 -120.6642 252° West 347 399 15,300 -1,672 Descending Oakland Center
Fri 11:19:17 PM 39.0497 -120.7781 251° West 339 390 13,500 -1,951 Descending Oakland Center
Fri 11:20:19 PM 39.0219 -120.8903 252° West 333 383 11,300 -1,707 Descending Oakland Center
Fri 11:21:20 PM 38.9928 -121.0019 251° West 331 381 10,000 -1,131 Descending Oakland Center
Fri 11:22:21 PM 38.9664 -121.0986 251° West 297 342 9,000 -1,426 Descending Oakland Center
Fri 11:23:22 PM 38.9386 -121.2067 252° West 271 312 7,100 -1,317 Descending Oakland Center
Fri 11:24:24 PM 38.9167 -121.2931 252° West 256 295 6,300 -504 Descending Oakland Center
Fri 11:25:33 PM 38.8833 -121.3833 245° Southwest 231 266 6,000 -744 Descending Northern Cal TRACON
Fri 11:26:33 PM 38.8500 -121.4500 237° Southwest 242 278 4,700 -1,333 Descending Northern Cal TRACON
Fri 11:27:39 PM 38.8167 -121.5333 243° Southwest 220 253 3,200 -1,095 Descending Northern Cal TRACON
Fri 11:28:39 PM 38.7833 -121.5833 229° Southwest 164 189 2,400 -1,150 Descending Northern Cal TRACON
Fri 11:29:39 PM 38.7500 -121.6000 201° Southwest 130 150 900 -1,100 Descending Northern Cal TRACON
Fri 11:30:39 PM 38.7167 -121.6000 180° South 116 133 200 -700 Descending Northern Cal TRACON
Fri 11:32:00 PM 38.6954 -121.5908 218° Southwest  Level Estimated
Fri 11:39:00 PM 38.6954 -121.5908 218° Southwest  Level Estimated

Login

Don't have an account? Register now (free) for customized features, flight alerts, and more!